createdAt,value
2018-03-06T00:01:49.502Z,97.00
2018-03-06T00:04:17.022Z,96.80
2018-03-06T00:06:44.528Z,97.00
2018-03-06T00:09:12.060Z,97.00
2018-03-06T00:11:39.562Z,97.10
2018-03-06T00:14:07.879Z,97.00
2018-03-06T00:16:35.434Z,96.90
2018-03-06T00:19:02.940Z,97.10
2018-03-06T00:21:30.558Z,97.00
2018-03-06T00:23:58.077Z,97.00
2018-03-06T00:26:26.350Z,97.00
2018-03-06T00:28:53.869Z,97.00
2018-03-06T00:31:21.377Z,97.20
2018-03-06T00:33:49.666Z,97.50
2018-03-06T00:36:17.177Z,97.50
2018-03-06T00:38:44.701Z,97.50
2018-03-06T00:41:12.178Z,97.50
2018-03-06T00:43:39.696Z,97.60
2018-03-06T00:46:07.185Z,97.60
2018-03-06T00:48:34.723Z,97.60
2018-03-06T00:51:02.217Z,97.70
2018-03-06T00:53:29.720Z,97.60
2018-03-06T00:55:57.969Z,97.70
2018-03-06T00:58:25.494Z,97.70
2018-03-06T01:00:53.012Z,97.80
2018-03-06T01:03:21.282Z,97.90
2018-03-06T01:05:49.528Z,98.00
2018-03-06T01:08:17.061Z,97.90
2018-03-06T01:10:44.619Z,98.00
2018-03-06T01:13:12.302Z,98.00
2018-03-06T01:15:39.789Z,98.10
2018-03-06T01:18:07.280Z,98.30
2018-03-06T01:20:34.810Z,98.30
2018-03-06T01:23:02.400Z,98.20
2018-03-06T01:25:29.921Z,98.20
2018-03-06T01:27:58.186Z,98.30
2018-03-06T01:30:25.746Z,98.30
2018-03-06T01:32:53.258Z,98.40
2018-03-06T01:35:20.771Z,98.50
2018-03-06T01:37:48.256Z,98.50
2018-03-06T01:40:15.785Z,98.80
2018-03-06T01:42:43.284Z,98.40
2018-03-06T01:45:10.811Z,98.40
2018-03-06T01:47:39.066Z,98.40
2018-03-06T01:50:06.577Z,98.40
2018-03-06T01:52:34.092Z,98.40
2018-03-06T01:55:01.988Z,98.50
2018-03-06T01:57:30.280Z,98.40
2018-03-06T01:59:57.836Z,98.30
2018-03-06T02:02:25.292Z,98.30
2018-03-06T02:04:52.806Z,98.40
2018-03-06T02:07:20.313Z,98.30
2018-03-06T02:09:47.853Z,98.30
2018-03-06T02:12:16.116Z,98.40
2018-03-06T02:14:43.694Z,98.40
2018-03-06T02:17:11.234Z,98.20
2018-03-06T02:19:39.064Z,98.10
2018-03-06T02:22:06.574Z,98.10
2018-03-06T02:24:34.115Z,98.10
2018-03-06T02:27:02.364Z,97.70
2018-03-06T02:29:29.848Z,97.70
2018-03-06T02:31:57.456Z,97.50
2018-03-06T02:34:24.965Z,97.50
2018-03-06T02:36:53.529Z,97.40
2018-03-06T02:39:21.040Z,97.40
2018-03-06T02:41:48.542Z,97.50
2018-03-06T02:44:16.045Z,97.20
2018-03-06T02:46:43.559Z,97.20
2018-03-06T02:49:11.040Z,97.50
2018-03-06T02:51:38.739Z,97.50
2018-03-06T02:54:06.243Z,97.60
2018-03-06T02:56:34.363Z,97.50
2018-03-06T02:59:01.880Z,97.70
2018-03-06T03:01:29.414Z,97.80
2018-03-06T03:03:56.918Z,97.70
2018-03-06T03:06:25.216Z,97.80
2018-03-06T03:08:52.701Z,97.80
2018-03-06T03:11:20.306Z,97.90
2018-03-06T03:13:48.593Z,97.70
2018-03-06T03:16:16.854Z,97.50
2018-03-06T03:18:45.146Z,97.60
2018-03-06T03:21:12.644Z,97.60
2018-03-06T03:23:40.163Z,97.60
2018-03-06T03:26:07.633Z,97.60
2018-03-06T03:28:35.154Z,97.50
2018-03-06T03:31:02.635Z,97.70
2018-03-06T03:33:30.921Z,97.80
2018-03-06T03:35:58.417Z,97.80
2018-03-06T03:38:26.004Z,97.70
2018-03-06T03:40:53.496Z,97.80
2018-03-06T03:43:21.020Z,98.00
2018-03-06T03:45:48.513Z,98.10
2018-03-06T03:48:16.057Z,98.20
2018-03-06T03:50:44.299Z,98.20
2018-03-06T03:53:11.822Z,98.20
2018-03-06T03:55:39.315Z,98.10
2018-03-06T03:58:06.824Z,97.90
2018-03-06T04:00:34.303Z,98.00
2018-03-06T04:03:01.806Z,98.10
2018-03-06T04:05:29.333Z,98.10
2018-03-06T04:07:56.847Z,98.30
2018-03-06T04:10:25.117Z,98.40
2018-03-06T04:12:53.416Z,98.40
2018-03-06T04:15:20.926Z,98.40
2018-03-06T04:17:48.436Z,98.30
2018-03-06T04:20:15.944Z,98.40
2018-03-06T04:22:43.438Z,98.40
2018-03-06T04:25:10.955Z,98.70
2018-03-06T04:27:38.448Z,98.70
2018-03-06T04:30:05.962Z,98.70
2018-03-06T04:32:33.466Z,98.80
2018-03-06T04:35:01.840Z,98.90
2018-03-06T04:37:30.122Z,98.90
2018-03-06T04:39:58.438Z,98.80
2018-03-06T04:42:25.936Z,98.80
2018-03-06T04:44:53.446Z,98.60
2018-03-06T04:47:20.954Z,98.60
2018-03-06T04:49:48.543Z,98.60
2018-03-06T04:52:16.044Z,98.50
2018-03-06T04:54:43.730Z,98.60
2018-03-06T04:57:11.227Z,98.60
2018-03-06T04:59:38.802Z,98.50
2018-03-06T05:02:06.372Z,98.50
2018-03-06T05:04:33.829Z,98.30
2018-03-06T05:07:01.362Z,98.40
2018-03-06T05:09:28.851Z,98.30
2018-03-06T05:11:56.358Z,98.30
2018-03-06T05:14:24.620Z,98.20
2018-03-06T05:16:52.142Z,98.30
2018-03-06T05:19:19.664Z,97.90
2018-03-06T05:21:47.220Z,98.10
2018-03-06T05:24:14.695Z,98.20
2018-03-06T05:26:42.204Z,98.40
2018-03-06T05:29:09.688Z,98.50
2018-03-06T05:31:37.965Z,98.60
2018-03-06T05:34:06.235Z,98.60
2018-03-06T05:36:34.533Z,98.90
2018-03-06T05:39:02.071Z,98.50
2018-03-06T05:41:29.568Z,98.50
2018-03-06T05:43:57.069Z,98.40
2018-03-06T05:46:24.581Z,98.40
2018-03-06T05:48:52.103Z,98.30
2018-03-06T05:51:20.522Z,98.30
2018-03-06T05:53:48.006Z,98.20
2018-03-06T05:56:15.559Z,98.20
2018-03-06T05:58:43.089Z,98.10
2018-03-06T06:01:10.621Z,98.10
2018-03-06T06:03:38.894Z,98.20
2018-03-06T06:06:07.208Z,98.10
2018-03-06T06:08:34.705Z,98.10
2018-03-06T06:11:02.184Z,97.90
2018-03-06T06:13:30.568Z,98.10
2018-03-06T06:16:00.640Z,98.10
2018-03-06T06:18:29.299Z,97.80
2018-03-06T06:20:56.829Z,97.70
2018-03-06T06:23:25.095Z,97.80
2018-03-06T06:25:52.571Z,97.80
2018-03-06T06:28:20.861Z,97.80
2018-03-06T06:30:48.404Z,97.80
2018-03-06T06:33:16.696Z,97.80
2018-03-06T06:35:44.175Z,97.80
2018-03-06T06:38:11.745Z,97.60
2018-03-06T06:40:39.244Z,97.50
2018-03-06T06:43:07.511Z,97.90
2018-03-06T06:45:34.978Z,97.80
2018-03-06T06:48:03.268Z,97.90
2018-03-06T06:50:31.517Z,98.00
2018-03-06T06:52:58.997Z,97.90
2018-03-06T06:55:27.320Z,98.00
2018-03-06T06:57:54.801Z,98.00
2018-03-06T07:00:22.304Z,97.90
2018-03-06T07:02:49.796Z,97.90
2018-03-06T07:05:17.294Z,98.10
2018-03-06T07:07:45.567Z,98.10
2018-03-06T07:10:13.860Z,98.00
2018-03-06T07:12:42.114Z,98.00
2018-03-06T07:15:09.637Z,97.90
2018-03-06T07:17:37.397Z,98.10
2018-03-06T07:20:07.454Z,97.90
2018-03-06T07:22:34.934Z,98.00
2018-03-06T07:25:02.460Z,98.00
2018-03-06T07:27:29.952Z,97.40
2018-03-06T07:29:58.221Z,96.90
2018-03-06T07:32:25.720Z,96.90
2018-03-06T07:34:53.275Z,96.80
2018-03-06T07:37:21.475Z,96.10
2018-03-06T07:39:49.021Z,96.00
2018-03-06T07:42:16.515Z,95.70
2018-03-06T07:44:44.053Z,95.90
2018-03-06T07:47:11.538Z,95.50
2018-03-06T07:49:39.081Z,95.30
2018-03-06T07:52:06.549Z,95.20
2018-03-06T07:54:34.029Z,95.20
2018-03-06T07:57:02.321Z,94.30
2018-03-06T07:59:29.884Z,94.30
2018-03-06T08:01:57.465Z,94.20
2018-03-06T08:04:25.000Z,94.00
2018-03-06T08:06:52.512Z,93.60
2018-03-06T08:09:19.988Z,93.70
2018-03-06T08:11:47.514Z,93.70
2018-03-06T08:14:15.002Z,93.90
2018-03-06T08:16:42.479Z,93.70
2018-03-06T08:19:10.756Z,94.10
2018-03-06T08:21:39.049Z,93.80
2018-03-06T08:24:06.524Z,93.80
2018-03-06T08:26:34.005Z,93.60
2018-03-06T08:29:01.523Z,93.20
2018-03-06T08:31:28.999Z,92.50
2018-03-06T08:33:57.287Z,91.30
2018-03-06T08:36:24.796Z,91.30
2018-03-06T08:38:52.313Z,90.10
2018-03-06T08:41:19.789Z,88.70
2018-03-06T08:43:47.290Z,85.00
2018-03-06T08:46:14.771Z,83.70
2018-03-06T08:48:42.275Z,81.70
2018-03-06T08:51:10.528Z,80.60
2018-03-06T08:53:38.045Z,80.50
2018-03-06T08:56:05.524Z,79.50
2018-03-06T08:58:33.037Z,79.30
2018-03-06T09:01:01.276Z,77.70
2018-03-06T09:03:28.833Z,77.70
2018-03-06T09:05:56.311Z,77.00
2018-03-06T09:08:23.809Z,76.40
2018-03-06T09:10:51.308Z,75.50
2018-03-06T09:13:19.500Z,73.50
2018-03-06T09:15:47.009Z,71.30
2018-03-06T09:18:14.540Z,69.90
2018-03-06T09:20:42.067Z,68.10
2018-03-06T09:23:09.600Z,66.30
2018-03-06T09:25:39.039Z,66.30
2018-03-06T09:28:06.530Z,66.00
2018-03-06T09:30:34.832Z,64.20
2018-03-06T09:33:02.348Z,64.10
2018-03-06T09:35:30.641Z,60.80
2018-03-06T09:37:58.181Z,60.80
2018-03-06T09:40:26.516Z,56.10
2018-03-06T09:42:54.047Z,56.00
2018-03-06T09:45:21.562Z,54.00
2018-03-06T09:47:49.051Z,52.40
2018-03-06T09:50:16.548Z,52.00
2018-03-06T09:52:44.039Z,51.70
2018-03-06T09:55:11.543Z,51.20
2018-03-06T09:57:39.024Z,50.40
2018-03-06T10:00:06.536Z,50.90
2018-03-06T10:02:34.036Z,50.40
2018-03-06T10:05:01.558Z,50.80
2018-03-06T10:07:29.061Z,51.10
2018-03-06T10:09:56.580Z,51.70
2018-03-06T10:12:24.072Z,52.10
2018-03-06T10:14:51.575Z,53.20
2018-03-06T10:17:19.818Z,54.20
2018-03-06T10:19:47.455Z,54.20
2018-03-06T10:22:15.676Z,54.80
2018-03-06T10:24:43.159Z,54.80
2018-03-06T10:27:10.663Z,54.90
2018-03-06T10:29:38.172Z,53.50
2018-03-06T10:32:05.665Z,53.60
2018-03-06T10:34:33.207Z,54.30
2018-03-06T10:37:00.767Z,54.00
2018-03-06T10:39:28.288Z,54.00
2018-03-06T10:41:55.785Z,54.00
2018-03-06T10:44:23.269Z,54.00
2018-03-06T10:46:50.799Z,54.70
2018-03-06T10:49:18.290Z,55.00
2018-03-06T10:51:45.922Z,55.20
2018-03-06T10:54:13.405Z,55.60
2018-03-06T10:56:40.918Z,55.80
2018-03-06T10:59:08.414Z,56.50
2018-03-06T11:01:36.769Z,55.70
2018-03-06T11:04:04.268Z,55.30
2018-03-06T11:06:31.775Z,55.10
2018-03-06T11:08:59.278Z,54.90
2018-03-06T11:11:26.786Z,54.20
2018-03-06T11:13:55.046Z,54.60
2018-03-06T11:16:23.316Z,54.80
2018-03-06T11:18:51.642Z,55.40
2018-03-06T11:21:19.131Z,55.40
2018-03-06T11:23:46.643Z,54.20
2018-03-06T11:26:14.131Z,53.70
2018-03-06T11:28:41.650Z,54.60
2018-03-06T11:31:09.139Z,55.10
2018-03-06T11:33:36.686Z,55.10
2018-03-06T11:36:04.156Z,55.50
2018-03-06T11:38:31.673Z,56.20
2018-03-06T11:40:59.924Z,57.00
2018-03-06T11:43:27.446Z,57.00
2018-03-06T11:45:55.246Z,58.60
2018-03-06T11:48:22.755Z,58.40
2018-03-06T11:50:50.259Z,65.90
2018-03-06T11:53:17.764Z,70.40
2018-03-06T11:55:45.253Z,74.20
2018-03-06T11:58:12.832Z,78.40
2018-03-06T12:00:40.313Z,82.60
2018-03-06T12:03:08.582Z,83.50
2018-03-06T12:05:36.918Z,80.10
2018-03-06T12:08:05.159Z,77.50
2018-03-06T12:10:32.688Z,77.60
2018-03-06T12:13:00.205Z,78.30
2018-03-06T12:15:27.715Z,84.50
2018-03-06T12:17:56.195Z,76.90
2018-03-06T12:20:24.512Z,70.60
2018-03-06T12:22:52.041Z,70.60
2018-03-06T12:25:20.348Z,64.20
2018-03-06T12:27:47.836Z,64.20
2018-03-06T12:30:15.328Z,61.00
2018-03-06T12:32:43.626Z,61.50
2018-03-06T12:35:11.163Z,61.50
2018-03-06T12:37:39.423Z,61.00
2018-03-06T12:40:06.927Z,60.90
2018-03-06T12:42:34.422Z,61.60
2018-03-06T12:45:01.925Z,62.50
2018-03-06T12:47:29.517Z,62.80
2018-03-06T12:49:57.074Z,62.80
2018-03-06T12:52:24.567Z,63.20
2018-03-06T12:54:52.128Z,63.80
2018-03-06T12:57:19.581Z,65.60
2018-03-06T12:59:47.070Z,65.00
2018-03-06T13:02:14.571Z,65.70
2018-03-06T13:04:42.051Z,66.50
2018-03-06T13:07:09.679Z,69.70
2018-03-06T13:09:37.954Z,78.10
2018-03-06T13:12:05.453Z,78.10
2018-03-06T13:14:32.967Z,75.00
2018-03-06T13:17:00.471Z,77.00
2018-03-06T13:19:27.984Z,76.40
2018-03-06T13:21:55.499Z,79.50
2018-03-06T13:24:22.980Z,83.90
2018-03-06T13:26:50.493Z,88.40
2018-03-06T13:29:17.982Z,91.90
2018-03-06T13:31:46.256Z,91.50
2018-03-06T13:34:14.525Z,91.80
2018-03-06T13:36:42.030Z,91.60
2018-03-06T13:39:09.503Z,91.50
2018-03-06T13:41:37.009Z,91.30
2018-03-06T13:44:05.308Z,96.70
2018-03-06T13:46:32.781Z,96.60
2018-03-06T13:49:01.060Z,98.50
2018-03-06T13:51:28.615Z,98.40
2018-03-06T13:53:56.125Z,99.40
2018-03-06T13:56:23.622Z,99.90
2018-03-06T13:58:51.137Z,99.90
2018-03-06T14:01:18.613Z,99.90
2018-03-06T14:03:46.906Z,99.90
2018-03-06T14:06:14.410Z,99.90
2018-03-06T14:08:41.926Z,99.90
2018-03-06T14:11:10.290Z,99.90
2018-03-06T14:13:37.803Z,99.50
2018-03-06T14:16:05.314Z,99.90
2018-03-06T14:18:33.659Z,99.90
2018-03-06T14:21:01.158Z,99.90
2018-03-06T14:23:28.816Z,99.40
2018-03-06T14:25:56.338Z,99.50
2018-03-06T14:28:23.829Z,99.20
2018-03-06T14:30:51.355Z,99.90
2018-03-06T14:33:18.838Z,99.90
2018-03-06T14:35:46.394Z,99.90
2018-03-06T14:38:14.652Z,98.30
2018-03-06T14:40:42.174Z,98.30
2018-03-06T14:43:09.673Z,98.20
2018-03-06T14:45:37.248Z,98.40
2018-03-06T14:48:04.820Z,98.30
2018-03-06T14:50:32.392Z,97.70
2018-03-06T14:52:59.893Z,95.90
2018-03-06T14:55:27.414Z,98.00
2018-03-06T14:57:54.902Z,95.50
2018-03-06T15:00:22.425Z,95.20
2018-03-06T15:02:49.923Z,93.50
2018-03-06T15:05:17.439Z,92.60
2018-03-06T15:07:44.923Z,92.50
2018-03-06T15:10:12.450Z,90.50
2018-03-06T15:12:40.186Z,90.80
2018-03-06T15:15:08.477Z,90.20
2018-03-06T15:17:36.708Z,90.40
2018-03-06T15:20:04.247Z,90.30
2018-03-06T15:22:31.735Z,89.70
2018-03-06T15:24:59.282Z,84.60
2018-03-06T15:27:26.798Z,87.40
2018-03-06T15:29:54.322Z,86.50
2018-03-06T15:32:21.832Z,88.20
2018-03-06T15:34:49.323Z,88.90
2018-03-06T15:37:16.841Z,89.10
2018-03-06T15:39:44.343Z,88.10
2018-03-06T15:42:11.928Z,88.00
2018-03-06T15:44:40.176Z,87.70
2018-03-06T15:47:07.708Z,87.60
2018-03-06T15:49:35.193Z,89.30
2018-03-06T15:52:02.712Z,89.20
2018-03-06T15:54:30.267Z,89.90
2018-03-06T15:56:58.668Z,90.40
2018-03-06T15:59:26.150Z,90.40
2018-03-06T16:01:53.677Z,90.60
2018-03-06T16:04:21.176Z,90.60
2018-03-06T16:06:48.817Z,90.70
2018-03-06T16:09:16.299Z,90.90
2018-03-06T16:11:43.792Z,91.10
2018-03-06T16:14:11.322Z,91.20
2018-03-06T16:16:39.624Z,92.00
2018-03-06T16:19:07.136Z,92.00
2018-03-06T16:21:34.600Z,92.80
2018-03-06T16:24:02.902Z,93.10
2018-03-06T16:26:30.420Z,93.10
2018-03-06T16:28:57.948Z,92.80
2018-03-06T16:31:25.439Z,92.50
2018-03-06T16:33:53.082Z,92.60
2018-03-06T16:36:20.578Z,92.50
2018-03-06T16:38:48.089Z,92.50
2018-03-06T16:41:15.564Z,92.70
2018-03-06T16:43:43.130Z,93.80
2018-03-06T16:46:10.627Z,95.60
2018-03-06T16:48:39.503Z,96.50
2018-03-06T16:51:07.772Z,97.40
2018-03-06T16:53:35.275Z,97.40
2018-03-06T16:56:02.785Z,97.60
2018-03-06T16:58:30.297Z,97.80
2018-03-06T17:00:57.804Z,98.30
2018-03-06T17:03:25.319Z,98.60
2018-03-06T17:05:52.809Z,98.70
2018-03-06T17:08:20.382Z,98.30
2018-03-06T17:10:47.866Z,98.80
2018-03-06T17:13:15.360Z,98.80
2018-03-06T17:15:42.947Z,98.80
2018-03-06T17:18:10.422Z,99.20
2018-03-06T17:20:37.984Z,99.30
2018-03-06T17:23:06.248Z,99.20
2018-03-06T17:25:33.767Z,99.20
2018-03-06T17:28:01.249Z,99.10
2018-03-06T17:30:28.754Z,99.60
2018-03-06T17:32:57.036Z,99.90
2018-03-06T17:35:24.565Z,99.90
2018-03-06T17:37:52.043Z,99.90
2018-03-06T17:40:20.328Z,99.90
2018-03-06T17:42:48.569Z,99.90
2018-03-06T17:45:16.105Z,99.90
2018-03-06T17:47:43.590Z,99.90
2018-03-06T17:50:11.101Z,99.90
2018-03-06T17:52:38.608Z,99.90
2018-03-06T17:55:06.126Z,99.90
2018-03-06T17:57:33.654Z,99.90
2018-03-06T18:00:01.214Z,99.90
2018-03-06T18:02:28.700Z,99.90
2018-03-06T18:04:56.200Z,99.90
2018-03-06T18:07:23.681Z,99.90
2018-03-06T18:09:51.224Z,99.90
2018-03-06T18:12:18.712Z,99.90
2018-03-06T18:14:46.258Z,99.90
2018-03-06T18:17:14.516Z,99.90
2018-03-06T18:19:42.031Z,99.90
2018-03-06T18:22:09.549Z,99.90
2018-03-06T18:24:37.801Z,99.90
2018-03-06T18:27:05.305Z,99.90
2018-03-06T18:29:32.786Z,99.90
2018-03-06T18:32:00.307Z,99.90
2018-03-06T18:34:27.793Z,99.90
2018-03-06T18:36:55.336Z,99.90
2018-03-06T18:39:23.534Z,99.90
2018-03-06T18:41:51.058Z,99.90
2018-03-06T18:44:18.567Z,99.90
2018-03-06T18:46:46.083Z,99.90
2018-03-06T18:49:13.771Z,99.90
2018-03-06T18:51:41.377Z,99.90
2018-03-06T18:54:09.653Z,99.90
2018-03-06T18:56:38.008Z,99.90
2018-03-06T18:59:05.494Z,99.90
2018-03-06T19:01:59.114Z,99.90
2018-03-06T19:04:38.424Z,99.90
2018-03-06T19:07:06.871Z,99.90
2018-03-06T19:09:35.188Z,99.90
2018-03-06T19:12:02.702Z,99.90
2018-03-06T19:14:30.948Z,99.90
2018-03-06T19:16:58.470Z,99.90
2018-03-06T19:19:25.934Z,99.90
2018-03-06T19:21:53.404Z,99.90
2018-03-06T19:24:20.922Z,99.90
2018-03-06T19:26:49.301Z,99.90
2018-03-06T19:29:17.560Z,99.90
2018-03-06T19:31:45.060Z,99.90
2018-03-06T19:34:12.591Z,99.90
2018-03-06T19:36:40.846Z,99.90
2018-03-06T19:39:08.367Z,99.90
2018-03-06T19:41:36.638Z,99.90
2018-03-06T19:44:04.148Z,99.90
2018-03-06T19:46:31.648Z,99.90
2018-03-06T19:48:59.193Z,99.90
2018-03-06T19:51:26.708Z,99.90
2018-03-06T19:53:54.241Z,99.90
2018-03-06T19:56:21.722Z,99.90
2018-03-06T19:58:49.254Z,99.90
2018-03-06T20:01:16.747Z,99.90
2018-03-06T20:03:44.250Z,99.90
2018-03-06T20:06:11.748Z,99.90
2018-03-06T20:08:39.289Z,99.90
2018-03-06T20:11:06.801Z,99.90
2018-03-06T20:13:35.080Z,99.90
2018-03-06T20:16:03.320Z,99.90
2018-03-06T20:18:30.835Z,99.90
2018-03-06T20:20:58.326Z,99.90
2018-03-06T20:23:25.854Z,99.90
2018-03-06T20:25:58.900Z,99.90
2018-03-06T20:28:26.420Z,99.90
2018-03-06T20:30:59.626Z,99.90
2018-03-06T20:33:27.125Z,99.90
2018-03-06T20:35:55.364Z,99.90
2018-03-06T20:38:28.605Z,99.90
2018-03-06T20:40:56.847Z,99.90
2018-03-06T20:43:24.369Z,99.90
2018-03-06T20:45:57.608Z,99.90
2018-03-06T20:48:25.905Z,99.90
2018-03-06T20:50:54.143Z,99.90
2018-03-06T20:53:27.404Z,99.90
2018-03-06T20:55:54.878Z,99.90
2018-03-06T20:58:22.398Z,99.90
2018-03-06T21:00:49.974Z,99.90
2018-03-06T21:03:17.450Z,99.90
2018-03-06T21:05:44.966Z,99.90
2018-03-06T21:08:13.209Z,99.90
2018-03-06T21:10:40.729Z,99.90
2018-03-06T21:13:08.209Z,99.90
2018-03-06T21:15:35.742Z,99.90
2018-03-06T21:18:03.248Z,99.90
2018-03-06T21:20:30.752Z,99.90
2018-03-06T21:22:58.226Z,99.90
2018-03-06T21:25:25.770Z,99.90
2018-03-06T21:27:53.270Z,99.90
2018-03-06T21:30:21.571Z,99.90
2018-03-06T21:32:49.883Z,99.90
2018-03-06T21:35:17.394Z,99.90
2018-03-06T21:37:44.925Z,99.90
2018-03-06T21:40:12.464Z,99.90
2018-03-06T21:42:39.940Z,99.90
2018-03-06T21:45:07.473Z,99.90
2018-03-06T21:47:35.033Z,99.90
2018-03-06T21:50:02.549Z,99.90
2018-03-06T21:52:30.020Z,99.90
2018-03-06T21:54:58.327Z,99.90
2018-03-06T21:57:25.799Z,99.90
2018-03-06T21:59:53.320Z,99.90
2018-03-06T22:02:21.551Z,99.90
2018-03-06T22:04:49.168Z,99.90
2018-03-06T22:07:16.660Z,99.90
2018-03-06T22:09:44.164Z,99.90
2018-03-06T22:12:12.403Z,99.90
2018-03-06T22:14:39.933Z,99.90
2018-03-06T22:17:07.490Z,99.90
2018-03-06T22:19:45.722Z,99.90
2018-03-06T22:22:14.165Z,99.90
2018-03-06T22:24:41.655Z,99.90
2018-03-06T22:27:09.143Z,99.90
2018-03-06T22:29:36.650Z,99.90
2018-03-06T22:32:04.153Z,99.90
2018-03-06T22:34:31.640Z,99.90
2018-03-06T22:36:59.184Z,99.90
2018-03-06T22:39:26.668Z,99.90
2018-03-06T22:41:54.178Z,99.90
2018-03-06T22:44:21.664Z,99.90
2018-03-06T22:46:49.986Z,99.90
2018-03-06T22:49:17.452Z,99.90
2018-03-06T22:51:44.966Z,99.90
2018-03-06T22:54:13.205Z,99.90
2018-03-06T22:56:40.708Z,99.90
2018-03-06T22:59:08.948Z,99.90
2018-03-06T23:01:36.468Z,99.90
2018-03-06T23:04:03.957Z,99.90
2018-03-06T23:06:31.464Z,99.90
2018-03-06T23:08:58.954Z,99.90
2018-03-06T23:11:26.466Z,99.90
2018-03-06T23:13:53.947Z,99.90
2018-03-06T23:16:21.513Z,99.90
2018-03-06T23:18:48.989Z,99.90
2018-03-06T23:21:16.492Z,99.90
2018-03-06T23:23:44.731Z,99.90
2018-03-06T23:26:12.240Z,99.90
2018-03-06T23:28:39.721Z,99.90
2018-03-06T23:31:07.286Z,99.90
2018-03-06T23:33:34.761Z,99.90
2018-03-06T23:36:03.037Z,99.90
2018-03-06T23:38:30.527Z,99.90
2018-03-06T23:40:58.043Z,99.90
2018-03-06T23:43:25.516Z,99.90
2018-03-06T23:45:53.033Z,99.90
2018-03-06T23:48:20.506Z,99.90
2018-03-06T23:50:48.018Z,99.90
2018-03-06T23:53:15.492Z,99.90
2018-03-06T23:55:43.793Z,99.90
2018-03-06T23:58:11.267Z,99.90
